createdAt,value
2016-09-11T00:00:12.276Z,0
2016-09-11T00:01:11.120Z,0
2016-09-11T00:02:10.817Z,0
2016-09-11T00:03:11.073Z,0
2016-09-11T00:04:11.096Z,0
2016-09-11T00:05:10.800Z,0
2016-09-11T00:06:10.702Z,0
2016-09-11T00:07:10.873Z,0
2016-09-11T00:08:10.692Z,0
2016-09-11T00:09:10.804Z,0
2016-09-11T00:10:11.848Z,0
2016-09-11T00:11:10.660Z,0
2016-09-11T00:12:10.943Z,0
2016-09-11T00:13:10.586Z,0
2016-09-11T00:14:10.884Z,0
2016-09-11T00:15:11.754Z,0
2016-09-11T00:16:11.082Z,0
2016-09-11T00:17:10.495Z,0
2016-09-11T00:18:10.480Z,0
2016-09-11T00:19:10.882Z,0
2016-09-11T00:20:10.543Z,0
2016-09-11T00:21:10.537Z,0
2016-09-11T00:22:10.424Z,0
2016-09-11T00:23:10.446Z,0
2016-09-11T00:24:10.405Z,0
2016-09-11T00:25:11.042Z,0
2016-09-11T00:26:10.390Z,0
2016-09-11T00:27:10.587Z,0
2016-09-11T00:28:10.410Z,0
2016-09-11T00:29:10.392Z,0
2016-09-11T00:30:11.668Z,0
2016-09-11T00:31:10.491Z,0
2016-09-11T00:32:10.611Z,0
2016-09-11T00:33:10.328Z,0
2016-09-11T00:34:10.301Z,0
2016-09-11T00:35:10.493Z,0
2016-09-11T00:36:10.165Z,0
2016-09-11T00:37:10.118Z,0
2016-09-11T00:38:10.410Z,0
2016-09-11T00:39:10.090Z,0
2016-09-11T00:40:11.295Z,0
2016-09-11T00:41:10.059Z,0
2016-09-11T00:42:10.391Z,0
2016-09-11T00:43:10.013Z,0
2016-09-11T00:44:09.979Z,0
2016-09-11T00:45:10.366Z,0
2016-09-11T00:46:10.014Z,0
2016-09-11T00:47:10.435Z,0
2016-09-11T00:48:10.233Z,0
2016-09-11T00:49:10.418Z,0
2016-09-11T00:50:11.594Z,0
2016-09-11T00:51:09.874Z,0
2016-09-11T00:52:09.826Z,0
2016-09-11T00:53:09.787Z,0
2016-09-11T00:54:10.124Z,0
2016-09-11T00:55:11.200Z,0
2016-09-11T00:56:09.755Z,0
2016-09-11T00:57:09.710Z,0
2016-09-11T00:58:09.992Z,0
2016-09-11T00:59:09.763Z,0
2016-09-11T01:00:10.016Z,0
2016-09-11T01:01:09.754Z,0
2016-09-11T01:02:09.646Z,0
2016-09-11T01:03:09.639Z,0
2016-09-11T01:04:09.893Z,0
2016-09-11T01:05:09.577Z,0
2016-09-11T01:06:09.548Z,0
2016-09-11T01:07:09.878Z,0
2016-09-11T01:08:09.535Z,0
2016-09-11T01:09:09.474Z,0
2016-09-11T01:10:10.275Z,0
2016-09-11T01:11:09.796Z,0
2016-09-11T01:12:09.451Z,0
2016-09-11T01:13:09.435Z,0
2016-09-11T01:14:09.686Z,0
2016-09-11T01:15:09.434Z,0
2016-09-11T01:16:09.402Z,0
2016-09-11T01:17:09.367Z,0
2016-09-11T01:18:09.631Z,0
2016-09-11T01:19:09.580Z,0
2016-09-11T01:20:09.955Z,0
2016-09-11T01:21:09.496Z,0
2016-09-11T01:22:09.266Z,0
2016-09-11T01:23:09.246Z,0
2016-09-11T01:24:11.335Z,0
2016-09-11T01:25:09.188Z,0
2016-09-11T01:26:09.821Z,0
2016-09-11T01:27:09.154Z,0
2016-09-11T01:28:09.140Z,0
2016-09-11T01:29:09.102Z,0
2016-09-11T01:30:09.192Z,0
2016-09-11T01:31:09.190Z,0
2016-09-11T01:32:09.404Z,0
2016-09-11T01:33:09.041Z,0
2016-09-11T01:34:09.301Z,0
2016-09-11T01:35:09.189Z,0
2016-09-11T01:36:09.005Z,0
2016-09-11T01:37:09.560Z,0
2016-09-11T01:38:08.916Z,0
2016-09-11T01:39:09.431Z,0
2016-09-11T01:40:09.379Z,0
2016-09-11T01:41:09.031Z,0
2016-09-11T01:42:09.162Z,0
2016-09-11T01:43:09.622Z,0
2016-09-11T01:44:08.824Z,0
2016-09-11T01:45:09.192Z,0
2016-09-11T01:46:09.126Z,0
2016-09-11T01:47:09.143Z,0
2016-09-11T01:48:08.932Z,0
2016-09-11T01:49:09.000Z,0
2016-09-11T01:50:09.197Z,0
2016-09-11T01:51:09.280Z,0
2016-09-11T01:52:08.799Z,0
2016-09-11T01:53:08.686Z,0
2016-09-11T01:54:09.187Z,0
2016-09-11T01:55:09.060Z,0
2016-09-11T01:56:08.822Z,0
2016-09-11T01:57:09.084Z,0
2016-09-11T01:58:08.803Z,0
2016-09-11T01:59:08.961Z,0
2016-09-11T02:00:09.206Z,0
2016-09-11T02:01:08.491Z,0
2016-09-11T02:02:08.466Z,0
2016-09-11T02:03:09.907Z,0
2016-09-11T02:04:08.542Z,0
2016-09-11T02:05:09.103Z,0
2016-09-11T02:06:08.537Z,0
2016-09-11T02:07:08.382Z,0
2016-09-11T02:08:08.607Z,0
2016-09-11T02:09:08.620Z,0
2016-09-11T02:10:09.773Z,0
2016-09-11T02:11:08.559Z,0
2016-09-11T02:12:08.576Z,0
2016-09-11T02:13:08.829Z,0
2016-09-11T02:14:08.225Z,0
2016-09-11T02:15:08.426Z,0
2016-09-11T02:16:08.243Z,0
2016-09-11T02:17:08.149Z,0
2016-09-11T02:18:08.118Z,0
2016-09-11T02:19:09.288Z,0
2016-09-11T02:20:08.824Z,0
2016-09-11T02:21:08.132Z,0
2016-09-11T02:22:08.424Z,0
2016-09-11T02:23:08.248Z,0
2016-09-11T02:24:08.300Z,0
2016-09-11T02:25:08.324Z,0
2016-09-11T02:26:08.088Z,0
2016-09-11T02:27:08.398Z,0
2016-09-11T02:28:07.969Z,0
2016-09-11T02:29:08.055Z,0
2016-09-11T02:30:08.321Z,0
2016-09-11T02:31:08.199Z,0
2016-09-11T02:32:07.827Z,0
2016-09-11T02:33:08.178Z,0
2016-09-11T02:34:08.402Z,0
2016-09-11T02:35:08.147Z,0
2016-09-11T02:36:07.864Z,0
2016-09-11T02:37:07.751Z,0
2016-09-11T02:38:07.686Z,0
2016-09-11T02:39:07.714Z,0
2016-09-11T02:40:08.081Z,0
2016-09-11T02:41:07.711Z,0
2016-09-11T02:42:07.621Z,0
2016-09-11T02:43:07.653Z,0
2016-09-11T02:44:07.921Z,0
2016-09-11T02:45:07.948Z,0
2016-09-11T02:46:08.207Z,0
2016-09-11T02:47:07.548Z,0
2016-09-11T02:48:08.102Z,0
2016-09-11T02:49:07.596Z,0
2016-09-11T02:50:07.730Z,0
2016-09-11T02:51:07.457Z,0
2016-09-11T02:52:07.514Z,0
2016-09-11T02:53:07.787Z,0
2016-09-11T02:54:07.860Z,0
2016-09-11T02:55:07.439Z,0
2016-09-11T02:56:07.725Z,0
2016-09-11T02:57:07.320Z,0
2016-09-11T02:58:07.304Z,0
2016-09-11T02:59:07.281Z,0
2016-09-11T03:00:07.417Z,0
2016-09-11T03:01:07.724Z,0
2016-09-11T03:02:07.273Z,0
2016-09-11T03:03:07.195Z,0
2016-09-11T03:04:07.487Z,0
2016-09-11T03:05:07.199Z,0
2016-09-11T03:06:07.941Z,0
2016-09-11T03:07:07.171Z,0
2016-09-11T03:08:07.607Z,0
2016-09-11T03:09:07.119Z,0
2016-09-11T03:10:07.365Z,0
2016-09-11T03:11:07.115Z,0
2016-09-11T03:12:07.005Z,0
2016-09-11T03:13:06.996Z,0
2016-09-11T03:14:07.248Z,0
2016-09-11T03:15:07.146Z,0
2016-09-11T03:16:07.154Z,0
2016-09-11T03:17:06.919Z,0
2016-09-11T03:18:06.920Z,0
2016-09-11T03:19:06.861Z,0
2016-09-11T03:20:07.565Z,0
2016-09-11T03:21:07.160Z,0
2016-09-11T03:22:07.265Z,0
2016-09-11T03:23:06.854Z,0
2016-09-11T03:24:07.148Z,0
2016-09-11T03:25:06.882Z,0
2016-09-11T03:26:06.734Z,0
2016-09-11T03:27:06.934Z,0
2016-09-11T03:28:07.321Z,0
2016-09-11T03:29:07.145Z,0
2016-09-11T03:30:07.776Z,0
2016-09-11T03:31:06.620Z,0
2016-09-11T03:32:06.774Z,0
2016-09-11T03:33:06.958Z,0
2016-09-11T03:34:06.576Z,0
2016-09-11T03:35:07.036Z,0
2016-09-11T03:36:06.825Z,0
2016-09-11T03:37:07.347Z,0
2016-09-11T03:38:06.568Z,0
2016-09-11T03:39:06.472Z,0
2016-09-11T03:40:07.106Z,0
2016-09-11T03:41:06.728Z,0
2016-09-11T03:42:06.500Z,0
2016-09-11T03:43:06.739Z,0
2016-09-11T03:44:06.737Z,0
2016-09-11T03:45:06.782Z,0
2016-09-11T03:46:06.459Z,0
2016-09-11T03:47:06.404Z,0
2016-09-11T03:48:06.282Z,0
2016-09-11T03:49:06.496Z,0
2016-09-11T03:50:07.717Z,0
2016-09-11T03:51:06.404Z,0
2016-09-11T03:52:06.521Z,0
2016-09-11T03:53:06.186Z,0
2016-09-11T03:54:06.219Z,0
2016-09-11T03:55:06.866Z,0
2016-09-11T03:56:06.242Z,0
2016-09-11T03:57:06.098Z,0
2016-09-11T03:58:06.109Z,0
2016-09-11T03:59:06.099Z,0
2016-09-11T04:00:06.294Z,0
2016-09-11T04:01:06.023Z,0
2016-09-11T04:02:06.193Z,0
2016-09-11T04:03:06.133Z,0
2016-09-11T04:04:06.101Z,0
2016-09-11T04:05:06.246Z,0
2016-09-11T04:06:05.931Z,0
2016-09-11T04:07:05.907Z,0
2016-09-11T04:08:06.571Z,0
2016-09-11T04:09:05.878Z,0
2016-09-11T04:10:06.622Z,0
2016-09-11T04:11:05.885Z,0
2016-09-11T04:12:06.487Z,0
2016-09-11T04:13:06.081Z,0
2016-09-11T04:14:05.837Z,0
2016-09-11T04:15:06.005Z,0
2016-09-11T04:16:05.731Z,0
2016-09-11T04:17:05.700Z,0
2016-09-11T04:18:05.729Z,0
2016-09-11T04:19:05.953Z,0
2016-09-11T04:20:07.117Z,0
2016-09-11T04:21:05.622Z,0
2016-09-11T04:22:05.899Z,0
2016-09-11T04:23:05.592Z,0
2016-09-11T04:24:05.679Z,0
2016-09-11T04:25:16.682Z,0
2016-09-11T04:26:05.823Z,0
2016-09-11T04:27:05.865Z,0
2016-09-11T04:28:05.466Z,0
2016-09-11T04:29:05.458Z,0
2016-09-11T04:30:05.548Z,0
2016-09-11T04:31:05.407Z,0
2016-09-11T04:32:05.388Z,0
2016-09-11T04:33:05.370Z,0
2016-09-11T04:34:05.347Z,0
2016-09-11T04:35:05.325Z,0
2016-09-11T04:36:05.608Z,0
2016-09-11T04:37:05.289Z,0
2016-09-11T04:38:05.268Z,0
2016-09-11T04:39:05.251Z,0
2016-09-11T04:40:05.224Z,0
2016-09-11T04:41:05.206Z,0
2016-09-11T04:42:05.186Z,0
2016-09-11T04:43:05.168Z,0
2016-09-11T04:44:05.167Z,0
2016-09-11T04:45:05.128Z,0
2016-09-11T04:46:05.109Z,0
2016-09-11T04:47:05.097Z,0
2016-09-11T04:48:05.068Z,5
2016-09-11T04:49:05.060Z,5
2016-09-11T04:50:05.036Z,5
2016-09-11T04:51:05.014Z,5
2016-09-11T04:52:05.000Z,5
2016-09-11T04:53:04.968Z,10
2016-09-11T04:54:04.949Z,10
2016-09-11T04:55:05.022Z,10
2016-09-11T04:56:04.910Z,10
2016-09-11T04:57:04.889Z,15
2016-09-11T04:58:04.869Z,15
2016-09-11T04:59:04.900Z,15
2016-09-11T05:00:04.834Z,20
2016-09-11T05:01:04.810Z,20
2016-09-11T05:02:04.799Z,20
2016-09-11T05:03:05.067Z,25
2016-09-11T05:04:04.749Z,25
2016-09-11T05:05:04.731Z,30
2016-09-11T05:06:04.708Z,30
2016-09-11T05:07:04.691Z,35
2016-09-11T05:08:04.681Z,40
2016-09-11T05:09:04.653Z,45
2016-09-11T05:10:04.714Z,45
2016-09-11T05:11:04.609Z,50
2016-09-11T05:12:04.589Z,55
2016-09-11T05:13:04.570Z,55
2016-09-11T05:14:04.549Z,60
2016-09-11T05:15:04.527Z,65
2016-09-11T05:16:04.572Z,65
2016-09-11T05:17:04.493Z,65
2016-09-11T05:18:04.474Z,70
2016-09-11T05:19:04.470Z,70
2016-09-11T05:20:04.432Z,75
2016-09-11T05:21:04.410Z,75
2016-09-11T05:22:04.398Z,80
2016-09-11T05:23:04.371Z,80
2016-09-11T05:24:04.351Z,85
2016-09-11T05:25:04.639Z,85
2016-09-11T05:26:04.312Z,85
2016-09-11T05:27:04.295Z,90
2016-09-11T05:28:04.294Z,95
2016-09-11T05:29:04.272Z,100
2016-09-11T05:30:04.529Z,105
2016-09-11T05:31:04.218Z,110
2016-09-11T05:32:04.198Z,115
2016-09-11T05:33:04.478Z,120
2016-09-11T05:34:04.177Z,120
2016-09-11T05:35:04.422Z,125
2016-09-11T05:36:04.120Z,125
2016-09-11T05:37:04.100Z,130
2016-09-11T05:38:04.084Z,135
2016-09-11T05:39:04.065Z,135
2016-09-11T05:40:04.304Z,140
2016-09-11T05:41:04.041Z,145
2016-09-11T05:42:04.016Z,145
2016-09-11T05:43:03.983Z,150
2016-09-11T05:44:03.972Z,155
2016-09-11T05:45:03.947Z,160
2016-09-11T05:46:03.927Z,160
2016-09-11T05:47:04.588Z,165
2016-09-11T05:48:03.893Z,170
2016-09-11T05:49:04.191Z,170
2016-09-11T05:50:03.854Z,170
2016-09-11T05:51:03.831Z,175
2016-09-11T05:52:03.810Z,175
2016-09-11T05:53:03.841Z,180
2016-09-11T05:54:03.774Z,180
2016-09-11T05:55:03.756Z,185
2016-09-11T05:56:03.734Z,190
2016-09-11T05:57:03.715Z,190
2016-09-11T05:58:03.696Z,195
2016-09-11T05:59:03.686Z,200
2016-09-11T06:00:03.659Z,200
2016-09-11T06:01:03.642Z,205
2016-09-11T06:02:03.626Z,205
2016-09-11T06:03:03.612Z,210
2016-09-11T06:04:03.583Z,210
2016-09-11T06:05:03.564Z,215
2016-09-11T06:06:03.549Z,220
2016-09-11T06:07:03.530Z,220
2016-09-11T06:08:03.509Z,225
2016-09-11T06:09:03.494Z,230
2016-09-11T06:10:03.480Z,230
2016-09-11T06:11:03.449Z,240
2016-09-11T06:12:03.628Z,240
2016-09-11T06:13:05.653Z,245
2016-09-11T06:14:03.716Z,250
2016-09-11T06:15:03.560Z,250
2016-09-11T06:16:03.594Z,255
2016-09-11T06:17:03.403Z,260
2016-09-11T06:18:03.736Z,265
2016-09-11T06:19:03.321Z,270
2016-09-11T06:20:04.808Z,270
2016-09-11T06:21:03.280Z,275
2016-09-11T06:22:03.584Z,280
2016-09-11T06:23:03.356Z,285
2016-09-11T06:24:03.549Z,290
2016-09-11T06:25:04.995Z,295
2016-09-11T06:26:03.448Z,300
2016-09-11T06:27:03.167Z,310
2016-09-11T06:28:03.200Z,315
2016-09-11T06:29:03.127Z,320
2016-09-11T06:30:03.685Z,325
2016-09-11T06:31:03.110Z,330
2016-09-11T06:32:03.081Z,335
2016-09-11T06:33:03.376Z,340
2016-09-11T06:34:03.653Z,345
2016-09-11T06:35:03.135Z,350
2016-09-11T06:36:03.039Z,355
2016-09-11T06:37:03.394Z,360
2016-09-11T06:38:02.965Z,365
2016-09-11T06:39:03.286Z,370
2016-09-11T06:40:02.960Z,375
2016-09-11T06:41:02.936Z,380
2016-09-11T06:42:03.065Z,390
2016-09-11T06:43:02.978Z,395
2016-09-11T06:44:03.217Z,400
2016-09-11T06:45:04.127Z,405
2016-09-11T06:46:02.846Z,415
2016-09-11T06:47:03.163Z,420
2016-09-11T06:48:02.950Z,435
2016-09-11T06:49:02.765Z,435
2016-09-11T06:50:03.480Z,445
2016-09-11T06:51:02.739Z,445
2016-09-11T06:52:03.015Z,455
2016-09-11T06:53:02.993Z,455
2016-09-11T06:54:02.690Z,455
2016-09-11T06:55:03.104Z,455
2016-09-11T06:56:02.951Z,455
2016-09-11T06:57:02.642Z,455
2016-09-11T06:58:02.724Z,455
2016-09-11T06:59:02.623Z,455
2016-09-11T07:00:03.669Z,460
2016-09-11T07:01:02.588Z,460
2016-09-11T07:02:02.659Z,460
2016-09-11T07:03:02.598Z,460
2016-09-11T07:04:02.594Z,465
2016-09-11T07:05:03.034Z,470
2016-09-11T07:06:02.586Z,470
2016-09-11T07:07:02.770Z,475
2016-09-11T07:08:02.862Z,480
2016-09-11T07:09:02.856Z,480
2016-09-11T07:10:02.701Z,485
2016-09-11T07:11:02.405Z,490
2016-09-11T07:12:02.379Z,495
2016-09-11T07:13:02.487Z,500
2016-09-11T07:14:02.664Z,510
2016-09-11T07:15:02.625Z,505
2016-09-11T07:16:02.301Z,510
2016-09-11T07:17:03.080Z,510
2016-09-11T07:18:02.467Z,510
2016-09-11T07:19:02.279Z,515
2016-09-11T07:20:02.509Z,520
2016-09-11T07:21:02.349Z,530
2016-09-11T07:22:02.315Z,540
2016-09-11T07:23:02.240Z,550
2016-09-11T07:24:02.252Z,560
2016-09-11T07:25:02.627Z,565
2016-09-11T07:26:02.443Z,565
2016-09-11T07:27:02.175Z,565
2016-09-11T07:28:02.428Z,565
2016-09-11T07:29:02.159Z,570
2016-09-11T07:30:03.867Z,575
2016-09-11T07:31:02.069Z,575
2016-09-11T07:32:02.190Z,580
2016-09-11T07:33:02.518Z,585
2016-09-11T07:34:02.821Z,590
2016-09-11T07:35:03.866Z,595
2016-09-11T07:36:02.346Z,605
2016-09-11T07:37:02.542Z,610
2016-09-11T07:38:02.041Z,615
2016-09-11T07:39:02.099Z,625
2016-09-11T07:40:02.664Z,630
2016-09-11T07:41:02.044Z,635
2016-09-11T07:42:01.894Z,640
2016-09-11T07:43:02.157Z,645
2016-09-11T07:44:01.926Z,650
2016-09-11T07:45:03.191Z,650
2016-09-11T07:46:02.154Z,655
2016-09-11T07:47:01.921Z,665
2016-09-11T07:48:02.813Z,660
2016-09-11T07:49:02.045Z,670
2016-09-11T07:50:02.175Z,665
2016-09-11T07:51:01.743Z,665
2016-09-11T07:52:01.761Z,670
2016-09-11T07:53:01.723Z,680
2016-09-11T07:54:02.004Z,675
2016-09-11T07:55:02.192Z,685
2016-09-11T07:56:01.660Z,690
2016-09-11T07:57:01.687Z,700
2016-09-11T07:58:01.943Z,700
2016-09-11T07:59:01.646Z,705
2016-09-11T08:00:01.711Z,705
2016-09-11T08:01:01.682Z,705
2016-09-11T08:02:01.570Z,715
2016-09-11T08:03:01.592Z,715
2016-09-11T08:04:01.651Z,725
2016-09-11T08:05:02.426Z,730
2016-09-11T08:06:01.813Z,735
2016-09-11T08:07:01.505Z,745
2016-09-11T08:08:01.865Z,755
2016-09-11T08:09:01.514Z,755
2016-09-11T08:10:02.231Z,755
2016-09-11T08:11:01.761Z,755
2016-09-11T08:12:01.588Z,765
2016-09-11T08:13:01.778Z,765
2016-09-11T08:14:01.429Z,770
2016-09-11T08:15:01.383Z,775
2016-09-11T08:16:01.466Z,780
2016-09-11T08:17:01.960Z,785
2016-09-11T08:18:01.453Z,785
2016-09-11T08:19:01.810Z,790
2016-09-11T08:20:01.296Z,795
2016-09-11T08:21:01.322Z,800
2016-09-11T08:22:01.591Z,805
2016-09-11T08:23:01.577Z,810
2016-09-11T08:24:01.608Z,815
2016-09-11T08:25:02.063Z,820
2016-09-11T08:26:01.892Z,825
2016-09-11T08:27:01.539Z,830
2016-09-11T08:28:01.196Z,835
2016-09-11T08:29:01.192Z,840
2016-09-11T08:30:02.735Z,845
2016-09-11T08:31:01.141Z,855
2016-09-11T08:32:01.159Z,860
2016-09-11T08:33:01.196Z,865
2016-09-11T08:34:01.566Z,870
2016-09-11T08:35:01.416Z,875
2016-09-11T08:36:01.072Z,890
2016-09-11T08:37:01.380Z,890
2016-09-11T08:38:01.401Z,895
2016-09-11T08:39:01.362Z,905
2016-09-11T08:40:01.045Z,910
2016-09-11T08:41:01.329Z,910
2016-09-11T08:42:01.009Z,915
2016-09-11T08:43:01.011Z,920
2016-09-11T08:44:01.000Z,925
2016-09-11T08:45:01.390Z,925
2016-09-11T08:46:00.960Z,925
2016-09-11T08:47:00.978Z,930
2016-09-11T08:48:00.905Z,935
2016-09-11T08:49:00.910Z,935
2016-09-11T08:50:00.956Z,940
2016-09-11T08:51:00.871Z,945
2016-09-11T08:52:01.162Z,945
2016-09-11T08:53:01.165Z,945
2016-09-11T08:54:01.164Z,945
2016-09-11T08:55:00.824Z,950
2016-09-11T08:56:01.107Z,945
2016-09-11T08:57:00.799Z,945
2016-09-11T08:58:00.787Z,945
2016-09-11T08:59:00.791Z,945
2016-09-11T09:00:01.131Z,945
2016-09-11T09:01:00.764Z,950
2016-09-11T09:02:00.717Z,955
2016-09-11T09:03:01.121Z,950
2016-09-11T09:04:01.016Z,950
2016-09-11T09:05:00.826Z,955
2016-09-11T09:06:00.697Z,960
2016-09-11T09:07:00.780Z,955
2016-09-11T09:08:01.322Z,960
2016-09-11T09:09:00.656Z,960
2016-09-11T09:10:00.713Z,965
2016-09-11T09:11:00.944Z,975
2016-09-11T09:12:00.730Z,970
2016-09-11T09:13:00.644Z,975
2016-09-11T09:14:00.879Z,975
2016-09-11T09:15:01.582Z,980
2016-09-11T09:16:00.578Z,980
2016-09-11T09:17:00.602Z,985
2016-09-11T09:18:01.046Z,985
2016-09-11T09:19:00.566Z,990
2016-09-11T09:20:00.839Z,995
2016-09-11T09:21:01.098Z,995
2016-09-11T09:22:00.762Z,1000
2016-09-11T09:23:01.308Z,1000
2016-09-11T09:24:00.916Z,1005
2016-09-11T09:25:00.423Z,1010
2016-09-11T09:26:01.086Z,1010
2016-09-11T09:27:00.713Z,1015
2016-09-11T09:28:00.691Z,1020
2016-09-11T09:29:00.558Z,1030
2016-09-11T09:30:00.504Z,1030
2016-09-11T09:31:00.598Z,1035
2016-09-11T09:32:00.336Z,1040
2016-09-11T09:33:00.812Z,1045
2016-09-11T09:34:00.740Z,1050
2016-09-11T09:35:00.770Z,1055
2016-09-11T09:36:00.286Z,1060
2016-09-11T09:37:01.787Z,1065
2016-09-11T09:38:00.290Z,1065
2016-09-11T09:39:01.368Z,1070
2016-09-11T09:40:00.568Z,1075
2016-09-11T09:41:01.107Z,1075
2016-09-11T09:42:00.548Z,1070
2016-09-11T09:43:00.446Z,1080
2016-09-11T09:44:00.261Z,1080
2016-09-11T09:45:00.547Z,1080
2016-09-11T09:46:00.614Z,1085
2016-09-11T09:47:00.168Z,1090
2016-09-11T09:48:00.152Z,1095
2016-09-11T09:49:00.226Z,1100
2016-09-11T09:50:00.557Z,1100
2016-09-11T09:51:00.152Z,1105
2016-09-11T09:52:00.109Z,1105
2016-09-11T09:53:00.156Z,1110
2016-09-11T09:54:00.308Z,1110
2016-09-11T09:55:00.559Z,1110
2016-09-11T09:56:00.034Z,1110
2016-09-11T09:57:00.381Z,1110
2016-09-11T09:58:00.319Z,1110
2016-09-11T09:59:00.061Z,1110
2016-09-11T09:59:59.998Z,1110
2016-09-11T10:00:59.990Z,1115
2016-09-11T10:01:59.964Z,1115
2016-09-11T10:02:59.961Z,1115
2016-09-11T10:03:59.937Z,1120
2016-09-11T10:04:59.966Z,1120
2016-09-11T10:05:59.916Z,1120
2016-09-11T10:07:00.606Z,1130
2016-09-11T10:08:00.365Z,1125
2016-09-11T10:08:59.870Z,1125
2016-09-11T10:09:59.881Z,1125
2016-09-11T10:10:59.904Z,1125
2016-09-11T10:11:59.873Z,1130
2016-09-11T10:12:59.825Z,1125
2016-09-11T10:13:59.979Z,1125
2016-09-11T10:14:59.811Z,1125
2016-09-11T10:15:59.798Z,1125
2016-09-11T10:16:59.809Z,1120
2016-09-11T10:18:00.180Z,1125
2016-09-11T10:19:00.180Z,1115
2016-09-11T10:20:00.369Z,1110
2016-09-11T10:20:59.734Z,1110
2016-09-11T10:21:59.720Z,1105
2016-09-11T10:22:59.705Z,1105
2016-09-11T10:24:00.067Z,1100
2016-09-11T10:24:59.986Z,1100
2016-09-11T10:25:59.745Z,1095
2016-09-11T10:26:59.681Z,1090
2016-09-11T10:28:00.097Z,1095
2016-09-11T10:29:00.236Z,1085
2016-09-11T10:29:59.740Z,1085
2016-09-11T10:30:59.623Z,1090
2016-09-11T10:31:59.603Z,1090
2016-09-11T10:32:59.593Z,1080
2016-09-11T10:33:59.935Z,1080
2016-09-11T10:34:59.874Z,1080
2016-09-11T10:35:59.555Z,1080
2016-09-11T10:37:00.193Z,1080
2016-09-11T10:37:59.531Z,1080
2016-09-11T10:38:59.531Z,1080
2016-09-11T10:39:59.514Z,1080
2016-09-11T10:40:59.507Z,1080
2016-09-11T10:41:59.488Z,1080
2016-09-11T10:42:59.483Z,1080
2016-09-11T10:43:59.472Z,1085
2016-09-11T10:44:59.739Z,1090
2016-09-11T10:45:59.880Z,1090
2016-09-11T10:46:59.498Z,1090
2016-09-11T10:47:59.412Z,1090
2016-09-11T10:48:59.695Z,1085
2016-09-11T10:49:59.996Z,1080
2016-09-11T10:50:59.781Z,1075
2016-09-11T10:51:59.369Z,1085
2016-09-11T10:52:59.368Z,1095
2016-09-11T10:53:59.964Z,1110
2016-09-11T10:54:59.355Z,1120
2016-09-11T10:55:59.373Z,1135
2016-09-11T10:56:59.323Z,1135
2016-09-11T10:57:59.619Z,1140
2016-09-11T10:58:59.658Z,1130
2016-09-11T10:59:59.343Z,1120
2016-09-11T11:01:00.633Z,1105
2016-09-11T11:01:59.288Z,1090
2016-09-11T11:02:59.271Z,1080
2016-09-11T11:03:59.309Z,1065
2016-09-11T11:04:59.212Z,1055
2016-09-11T11:05:59.496Z,1050
2016-09-11T11:06:59.195Z,1045
2016-09-11T11:07:59.528Z,1040
2016-09-11T11:08:59.534Z,1040
2016-09-11T11:09:59.158Z,1040
2016-09-11T11:10:59.474Z,1040
2016-09-11T11:11:59.137Z,1045
2016-09-11T11:12:59.126Z,1045
2016-09-11T11:13:59.112Z,1045
2016-09-11T11:14:59.128Z,1050
2016-09-11T11:15:59.241Z,1050
2016-09-11T11:16:59.084Z,1060
2016-09-11T11:17:59.354Z,1060
2016-09-11T11:18:59.098Z,1065
2016-09-11T11:19:59.424Z,1060
2016-09-11T11:20:59.048Z,1060
2016-09-11T11:21:59.053Z,1065
2016-09-11T11:22:59.314Z,1065
2016-09-11T11:23:59.011Z,1065
2016-09-11T11:24:59.589Z,1070
2016-09-11T11:25:59.008Z,1070
2016-09-11T11:26:58.950Z,1070
2016-09-11T11:27:59.351Z,1075
2016-09-11T11:28:58.936Z,1075
2016-09-11T11:29:59.529Z,1075
2016-09-11T11:30:58.931Z,1075
2016-09-11T11:31:58.929Z,1075
2016-09-11T11:32:59.477Z,1075
2016-09-11T11:33:59.206Z,1075
2016-09-11T11:34:58.962Z,1075
2016-09-11T11:35:59.149Z,1075
2016-09-11T11:36:59.610Z,1075
2016-09-11T11:37:58.832Z,1070
2016-09-11T11:38:58.814Z,1070
2016-09-11T11:39:59.096Z,1075
2016-09-11T11:40:59.046Z,1070
2016-09-11T11:41:59.105Z,1070
2016-09-11T11:42:59.170Z,1070
2016-09-11T11:43:58.766Z,1065
2016-09-11T11:44:59.296Z,1065
2016-09-11T11:45:59.356Z,1065
2016-09-11T11:46:58.716Z,1060
2016-09-11T11:47:58.709Z,1070
2016-09-11T11:49:04.315Z,1065
2016-09-11T11:49:58.791Z,1065
2016-09-11T11:50:59.502Z,1060
2016-09-11T11:51:59.057Z,1060
2016-09-11T11:52:58.665Z,1065
2016-09-11T11:53:58.676Z,1060
2016-09-11T11:54:58.639Z,1065
2016-09-11T11:55:58.958Z,1060
2016-09-11T11:56:58.612Z,1060
2016-09-11T11:57:58.998Z,1060
2016-09-11T11:58:58.879Z,1055
2016-09-11T11:59:58.890Z,1055
2016-09-11T12:00:58.625Z,1050
2016-09-11T12:01:58.863Z,1045
2016-09-11T12:02:59.022Z,1050
2016-09-11T12:03:58.553Z,1040
2016-09-11T12:04:58.518Z,1035
2016-09-11T12:05:58.517Z,1035
2016-09-11T12:06:58.852Z,1040
2016-09-11T12:07:58.539Z,1045
2016-09-11T12:08:58.485Z,1040
2016-09-11T12:09:59.138Z,1040
2016-09-11T12:10:58.756Z,1040
2016-09-11T12:11:58.487Z,1045
2016-09-11T12:12:58.451Z,1050
2016-09-11T12:13:58.777Z,1050
2016-09-11T12:14:58.434Z,1060
2016-09-11T12:15:58.714Z,1055
2016-09-11T12:16:59.002Z,1055
2016-09-11T12:17:58.514Z,1045
2016-09-11T12:18:58.377Z,1045
2016-09-11T12:19:59.159Z,1040
2016-09-11T12:20:58.409Z,1040
2016-09-11T12:21:58.577Z,1040
2016-09-11T12:22:58.652Z,1045
2016-09-11T12:23:58.320Z,1050
2016-09-11T12:24:58.366Z,1050
2016-09-11T12:25:58.365Z,1050
2016-09-11T12:26:58.315Z,1050
2016-09-11T12:27:58.293Z,1045
2016-09-11T12:28:58.886Z,1040
2016-09-11T12:29:58.296Z,1045
2016-09-11T12:30:58.326Z,1035
2016-09-11T12:31:58.535Z,1035
2016-09-11T12:32:58.541Z,1040
2016-09-11T12:33:58.268Z,1050
2016-09-11T12:34:58.255Z,1055
2016-09-11T12:35:58.259Z,1045
2016-09-11T12:36:58.514Z,1045
2016-09-11T12:37:58.488Z,1040
2016-09-11T12:38:58.488Z,1040
2016-09-11T12:39:58.473Z,1045
2016-09-11T12:40:58.162Z,1050
2016-09-11T12:41:58.137Z,1050
2016-09-11T12:42:58.418Z,1055
2016-09-11T12:43:58.127Z,1050
2016-09-11T12:44:58.454Z,1055
2016-09-11T12:45:58.119Z,1050
2016-09-11T12:46:58.401Z,1055
2016-09-11T12:47:58.529Z,1055
2016-09-11T12:48:58.376Z,1080
2016-09-11T12:49:58.067Z,1055
2016-09-11T12:50:58.347Z,1055
2016-09-11T12:51:58.126Z,1055
2016-09-11T12:52:58.026Z,1055
2016-09-11T12:53:58.014Z,1065
2016-09-11T12:54:58.485Z,1060
2016-09-11T12:55:58.296Z,1070
2016-09-11T12:56:57.985Z,1065
2016-09-11T12:57:57.989Z,1065
2016-09-11T12:58:57.981Z,1065
2016-09-11T12:59:58.034Z,1065
2016-09-11T13:00:58.055Z,1065
2016-09-11T13:01:58.275Z,1055
2016-09-11T13:02:58.543Z,1055
2016-09-11T13:03:57.939Z,1045
2016-09-11T13:04:57.911Z,1040
2016-09-11T13:05:57.940Z,1030
2016-09-11T13:06:58.522Z,1020
2016-09-11T13:07:57.890Z,1015
2016-09-11T13:08:57.906Z,1010
2016-09-11T13:09:58.493Z,1000
2016-09-11T13:10:57.936Z,995
2016-09-11T13:11:58.631Z,980
2016-09-11T13:12:57.906Z,975
2016-09-11T13:13:57.879Z,965
2016-09-11T13:14:57.850Z,960
2016-09-11T13:15:58.486Z,950
2016-09-11T13:16:58.087Z,945
2016-09-11T13:17:58.606Z,935
2016-09-11T13:18:57.781Z,925
2016-09-11T13:19:58.225Z,925
2016-09-11T13:20:58.066Z,925
2016-09-11T13:21:57.884Z,920
2016-09-11T13:22:57.885Z,925
2016-09-11T13:23:57.747Z,940
2016-09-11T13:24:57.729Z,945
2016-09-11T13:25:57.893Z,940
2016-09-11T13:26:58.064Z,940
2016-09-11T13:27:57.717Z,940
2016-09-11T13:28:57.719Z,935
2016-09-11T13:29:57.995Z,940
2016-09-11T13:30:57.756Z,935
2016-09-11T13:31:57.655Z,920
2016-09-11T13:32:57.678Z,915
2016-09-11T13:33:57.788Z,915
2016-09-11T13:34:57.945Z,920
2016-09-11T13:35:58.241Z,910
2016-09-11T13:36:57.923Z,910
2016-09-11T13:37:57.915Z,910
2016-09-11T13:38:57.699Z,910
2016-09-11T13:39:58.389Z,915
2016-09-11T13:40:57.609Z,900
2016-09-11T13:41:57.555Z,895
2016-09-11T13:42:57.575Z,890
2016-09-11T13:43:57.530Z,890
2016-09-11T13:44:57.522Z,890
2016-09-11T13:45:58.444Z,880
2016-09-11T13:46:57.493Z,875
2016-09-11T13:47:58.103Z,875
2016-09-11T13:48:57.488Z,870
2016-09-11T13:49:57.770Z,870
2016-09-11T13:50:57.470Z,860
2016-09-11T13:51:57.465Z,860
2016-09-11T13:52:57.430Z,850
2016-09-11T13:53:57.735Z,845
2016-09-11T13:54:57.423Z,850
2016-09-11T13:55:57.743Z,840
2016-09-11T13:56:57.473Z,840
2016-09-11T13:57:57.373Z,840
2016-09-11T13:58:57.704Z,830